Time;durP1;ratioP1;P1;durP2;ratioP2;P2;SDS_P1;SDS_P2;PMS_P1;PMS_P2;Temp;Humidity;BMP_temperature;BMP_pressure;BME280_temperature;BME280_humidity;BME280_pressure;Samples;Min_cycle;Max_cycle;Signal;HPM_P1;HPM_P2
2022/11/21 00:00:43;;;;;;;6.90;1.00;;;;;;;-145.69;100.00;52656.28;5115539;28;20588;-76
2022/11/21 00:03:13;;;;;;;4.50;1.00;;;;;;;-145.69;100.00;52680.06;5111089;28;20669;-76
2022/11/21 00:05:42;;;;;;;3.73;1.10;;;;;;;-145.69;100.00;52650.34;5115441;28;20197;-76
2022/11/21 00:08:13;;;;;;;1.10;1.00;;;;;;;-145.69;100.00;52682.03;5115425;28;20221;-76
2022/11/21 00:10:45;;;;;;;1.63;0.70;;;;;;;-145.69;100.00;52670.16;5115095;28;20751;-76
2022/11/21 00:13:15;;;;;;;2.37;0.80;;;;;;;-145.69;100.00;52648.38;5115534;28;20274;-76
2022/11/21 00:15:42;;;;;;;4.20;0.80;;;;;;;-145.69;100.00;52664.22;5113909;28;20193;-76
2022/11/21 00:18:10;;;;;;;0.93;0.53;;;;;;;-145.69;100.00;52678.09;5115104;28;20577;-76
2022/11/21 00:20:37;;;;;;;0.93;0.57;;;;;;;-145.69;100.00;52686.00;5115083;28;20655;-76
2022/11/21 00:23:07;;;;;;;2.80;0.87;;;;;;;-145.69;100.00;52684.03;5115126;28;20204;-76
2022/11/21 00:25:34;;;;;;;3.53;1.13;;;;;;;-145.69;100.00;52703.81;5115251;28;20629;-76
2022/11/21 00:28:00;;;;;;;2.43;0.87;;;;;;;-145.69;100.00;52658.28;5115044;28;20205;-76
2022/11/21 00:30:28;;;;;;;4.40;0.80;;;;;;;-145.69;100.00;52684.03;5114888;28;20205;-76
2022/11/21 00:32:55;;;;;;;2.23;0.83;;;;;;;-145.69;100.00;52634.50;5115084;28;20208;-77
2022/11/21 00:35:24;;;;;;;2.37;0.80;;;;;;;-145.69;100.00;52650.34;5114500;28;20236;-76
2022/11/21 00:37:53;;;;;;;3.67;1.10;;;;;;;-145.69;100.00;52662.22;5115051;28;20197;-76
2022/11/21 00:40:19;;;;;;;4.90;1.00;;;;;;;-145.69;100.00;52612.72;5114742;28;20197;-76
2022/11/21 00:42:46;;;;;;;3.10;1.10;;;;;;;-145.69;100.00;52658.28;5114537;28;20633;-77
2022/11/21 00:45:19;;;;;;;3.10;1.00;;;;;;;-145.69;100.00;52642.44;5114697;28;20208;-76
2022/11/21 00:47:48;;;;;;;4.03;0.80;;;;;;;-145.69;100.00;52664.22;5114031;28;20280;-76
2022/11/21 00:50:15;;;;;;;6.13;1.57;;;;;;;-145.69;100.00;52642.44;5114637;28;20236;-77
2022/11/21 00:52:41;;;;;;;2.30;0.90;;;;;;;-145.69;100.00;52614.72;5114517;28;20204;-76
2022/11/21 00:55:09;;;;;;;2.53;1.00;;;;;;;-145.69;100.00;52672.13;5114345;28;20201;-77
2022/11/21 00:57:35;;;;;;;4.00;1.20;;;;;;;-145.69;100.00;52682.03;5114083;28;20194;-77
2022/11/21 01:00:02;;;;;;;7.27;1.50;;;;;;;-145.69;100.00;52644.41;5114479;28;20201;-77
2022/11/21 01:02:28;;;;;;;4.03;1.10;;;;;;;-145.69;100.00;52652.34;5114097;28;20248;-77
2022/11/21 01:04:56;;;;;;;8.00;0.93;;;;;;;-145.69;100.00;52622.63;5114314;28;20204;-77
2022/11/21 01:07:23;;;;;;;4.83;1.17;;;;;;;-145.69;100.00;52680.06;5114290;28;20280;-76
2022/11/21 01:09:49;;;;;;;5.63;1.10;;;;;;;-145.69;100.00;52626.59;5103396;28;20239;-77
2022/11/21 01:12:19;;;;;;;1.57;1.10;;;;;;;-145.69;100.00;52640.44;5094050;28;20617;-77
2022/11/21 01:14:45;;;;;;;7.37;1.47;;;;;;;-145.69;100.00;52680.06;5108181;28;20197;-77
2022/11/21 01:17:12;;;;;;;4.80;1.13;;;;;;;-145.69;100.00;52664.22;5113639;28;20196;-76
2022/11/21 01:19:39;;;;;;;3.90;0.90;;;;;;;-145.69;100.00;52660.25;5106833;28;20201;-76
2022/11/21 01:22:06;;;;;;;2.30;1.00;;;;;;;-145.69;100.00;52682.03;5093669;28;20205;-77
2022/11/21 01:24:33;;;;;;;3.53;1.13;;;;;;;-145.69;100.00;52674.13;5093244;28;20224;-77
2022/11/21 01:27:05;;;;;;;3.60;1.33;;;;;;;-145.69;100.00;52644.41;5093410;28;20198;-77
2022/11/21 01:29:31;;;;;;;5.37;0.80;;;;;;;-145.69;100.00;52654.31;5105723;28;20225;-76
2022/11/21 01:32:00;;;;;;;6.10;1.33;;;;;;;-145.69;100.00;52658.28;5113821;28;20197;-77
2022/11/21 01:34:27;;;;;;;3.77;1.20;;;;;;;-145.69;100.00;52686.00;5113571;28;20201;-76
2022/11/21 01:36:53;;;;;;;3.30;1.40;;;;;;;-145.69;100.00;52654.31;5113631;28;20236;-77
2022/11/21 01:39:21;;;;;;;2.37;1.30;;;;;;;-145.69;100.00;52668.19;5113779;28;20587;-76
2022/11/21 01:41:48;;;;;;;3.10;1.00;;;;;;;-145.69;100.00;52680.06;5113596;28;20197;-76
2022/11/21 01:44:23;;;;;;;4.53;0.93;;;;;;;-145.69;100.00;52648.38;5113761;28;20201;-76
2022/11/21 01:46:51;;;;;;;9.03;1.33;;;;;;;-145.69;100.00;52674.13;5113016;28;20593;-77
2022/11/21 01:49:25;;;;;;;5.00;1.10;;;;;;;-145.69;100.00;52695.91;5113251;28;20256;-76
2022/11/21 01:51:55;;;;;;;2.27;0.90;;;;;;;-145.69;100.00;52634.50;5113760;28;20192;-77
2022/11/21 01:54:28;;;;;;;6.77;1.20;;;;;;;-145.69;100.00;52654.31;5113095;28;20200;-77
2022/11/21 01:57:02;;;;;;;3.90;1.00;;;;;;;-145.69;100.00;52628.56;5113441;28;20296;-77
2022/11/21 01:59:32;;;;;;;4.57;1.00;;;;;;;-145.69;100.00;52650.34;5113355;28;20284;-77
2022/11/21 02:02:06;;;;;;;5.43;1.20;;;;;;;-145.69;100.00;52664.22;5113266;28;20378;-76
2022/11/21 02:04:34;;;;;;;3.00;0.90;;;;;;;-145.69;100.00;52676.09;5113383;28;20193;-77
2022/11/21 02:07:06;;;;;;;3.90;1.10;;;;;;;-145.69;100.00;52656.28;5102284;28;20285;-77
2022/11/21 02:09:37;;;;;;;2.57;0.73;;;;;;;-145.69;100.00;52666.19;5113409;28;20278;-77
2022/11/21 02:12:08;;;;;;;4.37;0.93;;;;;;;-145.69;100.00;52638.47;5113117;28;20288;-77
2022/11/21 02:14:37;;;;;;;5.10;1.20;;;;;;;-145.69;100.00;52699.88;5113128;28;20211;-77
2022/11/21 02:17:07;;;;;;;5.40;1.30;;;;;;;-145.69;100.00;52682.03;5112198;28;20189;-77
2022/11/21 02:19:43;;;;;;;2.10;0.83;;;;;;;-145.69;100.00;52652.34;5113307;28;20563;-76
2022/11/21 02:22:16;;;;;;;2.40;1.10;;;;;;;-145.69;100.00;52654.31;5113052;28;20213;-76
2022/11/21 02:24:49;;;;;;;5.00;1.30;;;;;;;-145.69;100.00;52682.03;5105988;28;20644;-76
2022/11/21 02:27:17;;;;;;;1.33;0.70;;;;;;;-145.69;100.00;52705.81;5108234;28;20207;-76
2022/11/21 02:29:44;;;;;;;1.63;0.70;;;;;;;-145.69;100.00;52680.06;5112701;28;20225;-77
2022/11/21 02:32:23;;;;;;;3.50;0.60;;;;;;;-145.69;100.00;52652.34;5112812;28;20200;-76
2022/11/21 02:34:50;;;;;;;1.23;0.73;;;;;;;-145.69;100.00;52687.97;5113159;28;20229;-76
2022/11/21 02:37:18;;;;;;;1.27;0.70;;;;;;;-145.69;100.00;52656.28;5112826;28;20229;-77
2022/11/21 02:39:47;;;;;;;1.90;0.87;;;;;;;-145.69;100.00;52691.94;5116523;28;20189;-76
2022/11/21 02:42:21;;;;;;;1.07;0.60;;;;;;;-145.69;100.00;52668.19;5117075;28;20205;-76
2022/11/21 02:44:55;;;;;;;2.63;0.80;;;;;;;-145.69;100.00;52686.00;5116648;28;20189;-77
2022/11/21 02:47:23;;;;;;;1.47;0.63;;;;;;;-145.69;100.00;52662.22;5116856;28;20202;-76
2022/11/21 02:49:56;;;;;;;1.70;0.80;;;;;;;-145.69;100.00;52682.03;5116994;28;20251;-77
2022/11/21 02:52:23;;;;;;;0.73;0.60;;;;;;;-145.69;100.00;52658.28;5117208;28;20204;-76
2022/11/21 02:54:49;;;;;;;0.60;0.60;;;;;;;-145.69;100.00;52670.16;5116773;28;20190;-76
2022/11/21 02:57:16;;;;;;;2.37;0.80;;;;;;;-145.69;100.00;52670.16;5116893;28;20208;-77
2022/11/21 02:59:43;;;;;;;2.97;1.00;;;;;;;-145.69;100.00;52701.84;5116953;28;20209;-77
2022/11/21 03:02:10;;;;;;;1.30;0.97;;;;;;;-145.69;100.00;52693.94;5116843;28;20201;-77
2022/11/21 03:04:36;;;;;;;2.20;1.23;;;;;;;-145.69;100.00;52674.13;5116685;28;20204;-77
2022/11/21 03:07:03;;;;;;;1.73;1.10;;;;;;;-145.69;100.00;52707.78;5116375;28;20640;-77
2022/11/21 03:09:29;;;;;;;0.53;0.53;;;;;;;-145.69;100.00;52678.09;5116767;28;20233;-77
2022/11/21 03:11:56;;;;;;;1.03;0.90;;;;;;;-145.69;100.00;52686.00;5116046;28;20656;-77
2022/11/21 03:14:22;;;;;;;1.08;0.77;;;;;;;-145.69;100.00;52697.88;5115330;28;20439;-77
2022/11/21 03:16:50;;;;;;;1.23;0.67;;;;;;;-145.69;100.00;52686.00;5116491;28;20198;-77
2022/11/21 03:19:17;;;;;;;0.97;0.60;;;;;;;-145.69;100.00;52662.22;5116225;28;20201;-77
2022/11/21 03:21:43;;;;;;;3.07;0.80;;;;;;;-145.69;100.00;52674.13;5116658;28;20201;-77
2022/11/21 03:24:10;;;;;;;1.73;0.80;;;;;;;-145.69;100.00;52674.13;5116423;28;20204;-78
2022/11/21 03:26:36;;;;;;;0.93;0.70;;;;;;;-145.69;100.00;52686.00;5116461;28;20202;-77
2022/11/21 03:29:03;;;;;;;0.50;0.50;;;;;;;-145.69;100.00;52668.19;5116359;28;20229;-77
2022/11/21 03:31:29;;;;;;;1.47;0.60;;;;;;;-145.69;100.00;52721.66;5115820;28;20667;-77
2022/11/21 03:33:57;;;;;;;0.80;0.60;;;;;;;-145.69;100.00;52656.28;5116369;28;20194;-77
2022/11/21 03:36:24;;;;;;;2.60;0.80;;;;;;;-145.69;100.00;52674.13;5116110;28;20225;-77
2022/11/21 03:38:50;;;;;;;0.77;0.53;;;;;;;-145.69;100.00;52693.94;5116314;28;20258;-77
2022/11/21 03:41:32;;;;;;;1.43;0.63;;;;;;;-145.69;100.00;52670.16;5115861;28;20197;-76
2022/11/21 03:44:00;;;;;;;0.80;0.60;;;;;;;-145.69;100.00;52693.94;5115748;28;20711;-77
2022/11/21 03:46:27;;;;;;;0.50;0.50;;;;;;;-145.69;100.00;52672.13;5116321;28;20198;-77
2022/11/21 03:48:53;;;;;;;0.60;0.60;;;;;;;-145.69;100.00;52697.88;5115957;28;20208;-77
2022/11/21 03:51:21;;;;;;;0.70;0.60;;;;;;;-145.69;100.00;52743.44;5115986;28;20288;-77
2022/11/21 03:53:48;;;;;;;2.40;1.07;;;;;;;-145.69;100.00;52682.03;5115966;28;20563;-77
2022/11/21 03:56:15;;;;;;;1.30;1.07;;;;;;;-145.69;100.00;52693.94;5115487;28;20197;-77
2022/11/21 03:58:42;;;;;;;5.37;1.30;;;;;;;-145.69;100.00;52693.94;5115687;28;20217;-77
2022/11/21 04:01:09;;;;;;;2.60;0.80;;;;;;;-145.69;100.00;52691.94;5115954;28;20201;-77
2022/11/21 04:03:36;;;;;;;4.43;0.97;;;;;;;-145.69;100.00;52684.03;5115685;28;20655;-77
2022/11/21 04:06:02;;;;;;;4.97;0.90;;;;;;;-145.69;100.00;52664.22;5113060;28;20193;-77
2022/11/21 04:08:30;;;;;;;5.80;1.23;;;;;;;-145.69;100.00;52687.97;5115666;28;20215;-76
2022/11/21 04:10:56;;;;;;;2.37;1.30;;;;;;;-145.69;100.00;52680.06;5115168;28;20213;-76
2022/11/21 04:13:24;;;;;;;1.87;1.10;;;;;;;-145.69;100.00;52693.94;5115500;28;20229;-77
2022/11/21 04:15:51;;;;;;;4.73;1.27;;;;;;;-145.69;100.00;52693.94;5115571;28;20296;-77
2022/11/21 04:18:18;;;;;;;6.43;1.77;;;;;;;-145.69;100.00;52705.81;5115299;28;20221;-76
2022/11/21 04:20:44;;;;;;;3.77;1.60;;;;;;;-145.69;100.00;52699.88;5115281;28;20193;-77
2022/11/21 04:23:11;;;;;;;2.80;1.60;;;;;;;-145.69;100.00;52695.91;5115259;28;20212;-76
2022/11/21 04:25:39;;;;;;;4.23;1.70;;;;;;;-145.69;100.00;52693.94;5115228;28;20197;-76
2022/11/21 04:28:06;;;;;;;2.50;1.50;;;;;;;-145.69;100.00;52705.81;5115359;28;20551;-77
2022/11/21 04:30:34;;;;;;;3.93;1.50;;;;;;;-145.69;100.00;52626.59;5115014;28;20221;-76
2022/11/21 04:33:00;;;;;;;4.13;1.33;;;;;;;-145.69;100.00;52686.00;5115146;28;20198;-76
2022/11/21 04:35:27;;;;;;;1.70;1.13;;;;;;;-145.69;100.00;52691.94;5114867;28;20205;-76
2022/11/21 04:37:54;;;;;;;3.33;1.50;;;;;;;-145.69;100.00;52670.16;5114721;28;20204;-76
2022/11/21 04:40:20;;;;;;;2.90;1.43;;;;;;;-145.69;100.00;52672.13;5114733;28;20197;-77
2022/11/21 04:42:48;;;;;;;2.63;1.60;;;;;;;-145.69;100.00;52687.97;5114365;28;20201;-76
2022/11/21 04:45:16;;;;;;;3.20;1.23;;;;;;;-145.69;100.00;52693.94;5114976;28;20208;-76
2022/11/21 04:47:45;;;;;;;2.80;1.50;;;;;;;-145.69;100.00;52691.94;5114792;28;20208;-76
2022/11/21 04:50:15;;;;;;;4.00;1.50;;;;;;;-145.69;100.00;52644.41;5114329;28;20308;-76
2022/11/21 04:52:42;;;;;;;3.50;1.30;;;;;;;-145.69;100.00;52680.06;5114665;28;20553;-76
2022/11/21 04:55:09;;;;;;;3.93;1.57;;;;;;;-145.69;100.00;52701.84;5114521;28;20208;-76
2022/11/21 04:57:36;;;;;;;3.55;1.80;;;;;;;-145.69;100.00;52709.78;5113761;28;20434;-76
2022/11/21 05:00:04;;;;;;;3.37;1.47;;;;;;;-145.69;100.00;52701.84;5114452;28;20296;-76
2022/11/21 05:02:32;;;;;;;2.40;1.60;;;;;;;-145.69;100.00;52670.16;5113860;28;20659;-77
2022/11/21 05:04:58;;;;;;;3.77;1.20;;;;;;;-145.69;100.00;52711.75;5114500;28;20205;-77
2022/11/21 05:07:25;;;;;;;2.77;1.30;;;;;;;-145.69;100.00;52691.94;5114335;28;20197;-76
2022/11/21 05:09:52;;;;;;;3.63;1.33;;;;;;;-145.69;100.00;52686.00;5114197;28;20225;-76
2022/11/21 05:15:04;;;;;;;3.60;1.20;;;;;;;-145.69;100.00;52697.88;5114201;28;20196;-77
2022/11/21 05:17:31;;;;;;;2.43;1.30;;;;;;;-145.69;100.00;52707.78;5114162;28;20556;-77
2022/11/21 05:19:57;;;;;;;2.53;1.43;;;;;;;-145.69;100.00;52707.78;5113856;28;20202;-76
2022/11/21 05:22:24;;;;;;;3.93;1.13;;;;;;;-145.69;100.00;52745.41;5114407;28;20198;-76
2022/11/21 05:24:50;;;;;;;2.93;0.90;;;;;;;-145.69;100.00;52721.66;5114056;28;20194;-76
2022/11/21 05:27:17;;;;;;;2.73;1.30;;;;;;;-145.69;100.00;52709.78;5114203;28;20197;-76
2022/11/21 05:29:43;;;;;;;2.93;1.10;;;;;;;-145.69;100.00;52693.94;5114046;28;20231;-76
2022/11/21 05:32:11;;;;;;;2.53;0.90;;;;;;;-145.69;100.00;52727.59;5113650;28;20679;-76
2022/11/21 05:34:38;;;;;;;2.37;0.90;;;;;;;-145.69;100.00;52695.91;5113777;28;20197;-77
2022/11/21 05:37:05;;;;;;;4.67;0.97;;;;;;;-145.69;100.00;52693.94;5113580;28;20595;-77
2022/11/21 05:39:32;;;;;;;3.33;1.20;;;;;;;-145.69;100.00;52668.19;5113719;28;20643;-77
2022/11/21 05:41:58;;;;;;;6.40;1.10;;;;;;;-145.69;100.00;52678.09;5113139;28;20193;-76
2022/11/21 05:44:24;;;;;;;1.90;1.20;;;;;;;-145.69;100.00;52725.63;5113747;28;20193;-77
2022/11/21 05:46:50;;;;;;;3.07;1.20;;;;;;;-145.69;100.00;52695.91;5113522;28;20656;-77
2022/11/21 05:49:18;;;;;;;2.77;1.30;;;;;;;-145.69;100.00;52682.03;5113351;28;20193;-76
2022/11/21 05:51:44;;;;;;;2.07;1.17;;;;;;;-145.69;100.00;52697.88;5113573;28;20702;-77
2022/11/21 05:54:12;;;;;;;1.30;1.07;;;;;;;-145.69;100.00;52687.97;5113716;28;20193;-77
2022/11/21 05:56:39;;;;;;;4.27;1.53;;;;;;;-145.69;100.00;52701.84;5113619;28;20204;-77
2022/11/21 05:59:05;;;;;;;6.57;2.83;;;;;;;-145.69;100.00;52678.09;5111456;28;20204;-77
2022/11/21 06:04:17;;;;;;;5.07;2.40;;;;;;;-145.69;100.00;52682.03;5113348;28;20575;-77
2022/11/21 06:06:44;;;;;;;5.57;2.50;;;;;;;-145.69;100.00;52664.22;5113524;28;20229;-77
2022/11/21 06:09:11;;;;;;;9.50;3.17;;;;;;;-145.69;100.00;52709.78;5113260;28;20220;-77
2022/11/21 06:11:37;;;;;;;7.17;2.90;;;;;;;-145.69;100.00;52674.13;5112596;28;20217;-77
2022/11/21 06:14:04;;;;;;;8.47;3.73;;;;;;;-145.69;100.00;52697.88;5112954;28;20200;-77
2022/11/21 06:16:30;;;;;;;9.03;3.90;;;;;;;-145.69;100.00;52674.13;5113638;28;20211;-77
2022/11/21 06:18:57;;;;;;;10.53;3.23;;;;;;;-145.69;100.00;52711.75;5112928;28;20659;-77
2022/11/21 06:21:27;;;;;;;5.80;3.30;;;;;;;-145.69;100.00;52701.84;5113322;28;20435;-77
2022/11/21 06:23:55;;;;;;;13.20;5.57;;;;;;;-145.69;100.00;52682.03;5112945;28;20571;-77
2022/11/21 06:26:23;;;;;;;9.40;4.70;;;;;;;-145.69;100.00;52686.00;5113319;28;20559;-77
2022/11/21 06:28:50;;;;;;;15.63;5.10;;;;;;;-145.69;100.00;52654.31;5113266;28;20197;-77
2022/11/21 06:31:19;;;;;;;26.10;11.17;;;;;;;-145.69;100.00;52693.94;5113037;28;20229;-78
2022/11/21 06:33:46;;;;;;;14.93;5.40;;;;;;;-145.69;100.00;52713.72;5113245;28;20201;-78
2022/11/21 06:36:14;;;;;;;11.07;4.57;;;;;;;-145.69;100.00;52711.75;5092865;28;20253;-77
2022/11/21 06:38:43;;;;;;;13.33;5.20;;;;;;;-145.69;100.00;52682.03;5092695;28;20202;-77
2022/11/21 06:41:12;;;;;;;31.50;10.27;;;;;;;-145.69;100.00;52682.03;5101292;28;20197;-77
2022/11/21 06:43:39;;;;;;;19.07;4.77;;;;;;;-145.69;100.00;52672.13;5113316;28;20201;-77
2022/11/21 06:46:05;;;;;;;8.87;4.87;;;;;;;-145.69;100.00;52693.94;5112993;28;20197;-77
2022/11/21 06:48:33;;;;;;;20.70;7.37;;;;;;;-145.69;100.00;52689.97;5113039;28;20205;-77
2022/11/21 06:51:04;;;;;;;7.93;2.03;;;;;;;-145.69;100.00;52693.94;5103655;28;20218;-77
2022/11/21 06:53:30;;;;;;;12.93;2.40;;;;;;;-145.69;100.00;52705.81;5092709;28;20202;-77
2022/11/21 06:55:59;;;;;;;8.97;2.20;;;;;;;-145.69;100.00;52682.03;5092486;28;20209;-77
2022/11/21 06:58:26;;;;;;;12.83;1.80;;;;;;;-145.69;100.00;52680.06;5092590;28;20194;-78
2022/11/21 07:00:53;;;;;;;9.90;1.70;;;;;;;-145.69;100.00;52680.06;5092640;28;20198;-77
2022/11/21 07:03:20;;;;;;;3.27;1.27;;;;;;;-145.69;100.00;52703.81;5092454;28;20194;-77
2022/11/21 07:05:46;;;;;;;10.27;1.30;;;;;;;-145.69;100.00;52684.03;5092483;28;20206;-77
2022/11/21 07:08:13;;;;;;;8.10;1.80;;;;;;;-145.69;100.00;52699.88;5092409;28;20209;-77
2022/11/21 07:10:40;;;;;;;10.83;2.77;;;;;;;-145.69;100.00;52638.47;5092522;28;20230;-77
2022/11/21 07:13:23;;;;;;;10.33;2.00;;;;;;;-145.69;100.00;52693.94;5112680;28;20201;-77
2022/11/21 07:15:51;;;;;;;4.77;2.17;;;;;;;-145.69;100.00;52686.00;5112682;28;20287;-78
2022/11/21 07:18:18;;;;;;;13.53;2.40;;;;;;;-145.69;100.00;52650.34;5112787;28;20193;-78
2022/11/21 07:20:46;;;;;;;10.57;1.57;;;;;;;-145.69;100.00;52719.66;5112161;28;20193;-78
2022/11/21 07:23:12;;;;;;;8.77;1.80;;;;;;;-145.69;100.00;52697.88;5112611;28;20194;-77
2022/11/21 07:25:39;;;;;;;4.47;1.80;;;;;;;-145.69;100.00;52672.13;5115619;28;20197;-77
2022/11/21 07:28:08;;;;;;;5.90;2.50;;;;;;;-145.69;100.00;52697.88;5116274;28;20193;-77
2022/11/21 07:30:35;;;;;;;7.63;1.60;;;;;;;-145.69;100.00;52695.91;5116213;28;20229;-78
2022/11/21 07:33:04;;;;;;;8.43;2.07;;;;;;;-145.69;100.00;52715.72;5116168;28;20558;-77
2022/11/21 07:35:31;;;;;;;6.23;1.53;;;;;;;-145.69;100.00;52680.06;5116331;28;20233;-77
2022/11/21 07:37:58;;;;;;;6.23;1.50;;;;;;;-145.69;100.00;52703.81;5116447;28;20200;-77
2022/11/21 07:40:24;;;;;;;7.23;2.30;;;;;;;-145.69;100.00;52674.13;5116266;28;20588;-77
2022/11/21 07:42:51;;;;;;;6.57;2.10;;;;;;;-145.69;100.00;52713.72;5116066;28;20201;-77
2022/11/21 07:45:19;;;;;;;6.17;1.33;;;;;;;-145.69;100.00;52687.97;5115886;28;20649;-77
2022/11/21 07:47:46;;;;;;;8.20;1.47;;;;;;;-145.69;100.00;52678.09;5115467;28;20197;-77
2022/11/21 07:50:12;;;;;;;13.77;1.37;;;;;;;-145.69;100.00;52660.25;5115821;28;20288;-77
2022/11/21 07:52:39;;;;;;;7.70;1.40;;;;;;;-145.69;100.00;52648.38;5104698;28;20209;-77
2022/11/21 07:55:06;;;;;;;4.93;1.27;;;;;;;-145.69;100.00;52666.19;5095637;28;20198;-78
2022/11/21 07:57:33;;;;;;;3.80;1.30;;;;;;;-145.69;100.00;52654.31;5104283;28;20204;-78
2022/11/21 07:59:59;;;;;;;3.43;1.23;;;;;;;-145.69;100.00;52680.06;5115623;28;20198;-78
2022/11/21 08:02:28;;;;;;;5.33;1.20;;;;;;;-145.69;100.00;52660.25;5115702;28;20198;-78
2022/11/21 08:04:55;;;;;;;6.07;1.30;;;;;;;-145.69;100.00;52682.03;5115811;28;20197;-78
2022/11/21 08:07:23;;;;;;;6.87;1.43;;;;;;;-145.69;100.00;52666.19;5115783;28;20670;-78
2022/11/21 08:09:49;;;;;;;3.90;1.60;;;;;;;-145.69;100.00;52684.03;5115577;28;20246;-78
2022/11/21 08:12:16;;;;;;;3.23;1.60;;;;;;;-145.69;100.00;52674.13;5115003;28;20217;-77
2022/11/21 08:14:43;;;;;;;3.93;2.17;;;;;;;-145.69;100.00;52686.00;5115489;28;20217;-78
2022/11/21 08:17:09;;;;;;;5.37;1.47;;;;;;;-145.69;100.00;52703.81;5115597;28;20194;-78
2022/11/21 08:19:37;;;;;;;3.63;1.57;;;;;;;-145.69;100.00;52691.94;5115788;28;20194;-78
2022/11/21 08:22:04;;;;;;;5.43;1.73;;;;;;;-145.69;100.00;52666.19;5115340;28;20194;-78
2022/11/21 08:24:33;;;;;;;8.07;2.13;;;;;;;-145.69;100.00;52705.81;5115477;28;20219;-78
2022/11/21 08:27:00;;;;;;;4.43;1.60;;;;;;;-145.69;100.00;52666.19;5114941;28;20202;-79
2022/11/21 08:29:26;;;;;;;7.00;2.13;;;;;;;-145.69;100.00;52662.22;5113172;28;20431;-79
2022/11/21 08:31:53;;;;;;;6.43;1.43;;;;;;;-145.69;100.00;52658.28;5115221;28;20278;-78
2022/11/21 08:34:19;;;;;;;5.23;1.40;;;;;;;-145.69;100.00;52668.19;5114770;28;20193;-78
2022/11/21 08:36:47;;;;;;;2.63;1.40;;;;;;;-145.69;100.00;52666.19;5113396;28;20222;-79
2022/11/21 08:39:13;;;;;;;5.90;1.10;;;;;;;-145.69;100.00;52650.34;5115082;28;20204;-78
2022/11/21 08:44:24;;;;;;;6.50;1.50;;;;;;;-145.69;100.00;52674.13;5115101;28;20199;-78
2022/11/21 08:46:51;;;;;;;2.30;1.10;;;;;;;-145.69;100.00;52670.16;5114557;28;20198;-79
2022/11/21 08:49:17;;;;;;;6.20;1.27;;;;;;;-145.69;100.00;52658.28;5115005;28;20205;-79
2022/11/21 08:51:44;;;;;;;11.97;1.40;;;;;;;-145.69;100.00;52648.38;5114627;28;20319;-79
2022/11/21 08:54:12;;;;;;;4.17;1.37;;;;;;;-145.69;100.00;52670.16;5114719;28;20559;-79
2022/11/21 08:56:38;;;;;;;5.80;1.60;;;;;;;-145.69;100.00;52680.06;5114527;28;20210;-79
2022/11/21 08:59:05;;;;;;;6.20;1.50;;;;;;;-145.69;100.00;52634.50;5114174;28;20204;-79
2022/11/21 09:01:31;;;;;;;7.63;1.50;;;;;;;-145.69;100.00;52686.00;5114839;28;20240;-78
2022/11/21 09:03:58;;;;;;;4.90;1.47;;;;;;;-145.69;100.00;52670.16;5114328;28;20212;-78
2022/11/21 09:06:24;;;;;;;4.43;1.70;;;;;;;-145.69;100.00;52676.09;5114520;28;20220;-78
2022/11/21 09:08:51;;;;;;;3.40;1.40;;;;;;;-145.69;100.00;52662.22;5113765;28;20197;-78
2022/11/21 09:11:23;;;;;;;8.90;2.00;;;;;;;-145.69;100.00;52652.34;5113858;28;20224;-78
2022/11/21 09:19:15;;;;;;;5.70;1.40;;;;;;;-145.69;100.00;52636.50;5114455;28;20888;-79
2022/11/21 09:21:41;;;;;;;8.30;1.40;;;;;;;-145.69;100.00;52658.28;5114124;28;20212;-77
2022/11/21 09:24:08;;;;;;;6.07;1.87;;;;;;;-145.69;100.00;52662.22;5110010;28;20209;-78
2022/11/21 09:26:36;;;;;;;3.37;1.10;;;;;;;-145.69;100.00;52662.22;5112276;28;20219;-77
2022/11/21 09:29:03;;;;;;;11.93;1.50;;;;;;;-145.69;100.00;52664.22;5113687;28;20197;-77
2022/11/21 09:31:29;;;;;;;6.50;1.13;;;;;;;-145.69;100.00;52705.81;5113548;28;20247;-77
2022/11/21 09:33:56;;;;;;;5.10;1.20;;;;;;;-145.69;100.00;52644.41;5112817;28;20201;-77
2022/11/21 09:36:22;;;;;;;4.27;1.10;;;;;;;-145.69;100.00;52640.44;5113828;28;20256;-76
2022/11/21 09:38:51;;;;;;;6.80;1.30;;;;;;;-145.69;100.00;52636.50;5113499;28;20197;-78
2022/11/21 09:44:22;;;;;;;4.70;1.10;;;;;;;-145.69;100.00;52662.22;5110415;28;20216;-77
2022/11/21 09:46:53;;;;;;;7.93;1.23;;;;;;;-145.69;100.00;52660.25;5113713;28;20211;-76
2022/11/21 09:49:23;;;;;;;4.60;1.43;;;;;;;-145.69;100.00;52654.31;5113350;28;20244;-77
2022/11/21 09:51:51;;;;;;;7.73;1.60;;;;;;;-145.69;100.00;52618.66;5113474;28;20225;-77
2022/11/21 09:54:24;;;;;;;8.47;1.90;;;;;;;-145.69;100.00;52632.53;5113439;28;20663;-76
2022/11/21 09:56:53;;;;;;;7.50;1.90;;;;;;;-145.69;100.00;52646.41;5113540;28;20322;-77
2022/11/21 09:59:32;;;;;;;5.73;1.47;;;;;;;-145.69;100.00;52638.47;5112916;28;20291;-77
2022/11/21 10:01:58;;;;;;;3.77;1.07;;;;;;;-145.69;100.00;52670.16;5113480;28;20285;-79
2022/11/21 10:04:26;;;;;;;7.13;1.90;;;;;;;-145.69;100.00;52646.41;5114930;28;20197;-77
2022/11/21 10:07:02;;;;;;;8.30;1.83;;;;;;;-145.69;100.00;52630.53;5112803;28;20189;-77
2022/11/21 10:09:46;;;;;;;5.43;1.43;;;;;;;-145.69;100.00;52672.13;5113237;28;20228;-77
2022/11/21 10:12:39;;;;;;;5.00;1.10;;;;;;;-145.69;100.00;52646.41;5113325;28;20583;-78
2022/11/21 10:15:24;;;;;;;4.63;1.13;;;;;;;-145.69;100.00;52658.28;5113003;28;20266;-77
2022/11/21 10:18:04;;;;;;;5.13;1.53;;;;;;;-145.69;100.00;52626.59;5112515;28;20594;-78
2022/11/21 10:20:45;;;;;;;3.40;1.30;;;;;;;-145.69;100.00;52626.59;5113277;28;20284;-77
2022/11/21 10:23:39;;;;;;;4.23;1.23;;;;;;;-145.69;100.00;52642.44;5113416;28;20212;-77
2022/11/21 10:26:15;;;;;;;6.23;0.87;;;;;;;-145.69;100.00;52616.69;5110459;28;20290;-77
2022/11/21 10:28:49;;;;;;;2.57;0.93;;;;;;;-145.69;100.00;52636.50;5113417;28;20204;-77
2022/11/21 10:31:19;;;;;;;7.03;1.23;;;;;;;-145.69;100.00;52624.59;5112548;28;20224;-77
2022/11/21 10:33:46;;;;;;;7.53;1.60;;;;;;;-145.69;100.00;52630.53;5112677;28;20525;-77
2022/11/21 10:36:23;;;;;;;4.23;1.50;;;;;;;-145.69;100.00;52670.16;5112908;28;20583;-77
2022/11/21 10:38:50;;;;;;;8.60;1.60;;;;;;;-145.69;100.00;52678.09;5111758;28;20982;-77
2022/11/21 10:41:21;;;;;;;8.17;1.30;;;;;;;-145.69;100.00;52660.25;5111596;28;20251;-77
2022/11/21 10:46:54;;;;;;;7.33;1.33;;;;;;;-145.69;100.00;52658.28;5112424;28;20671;-77
2022/11/21 10:49:21;;;;;;;7.27;2.00;;;;;;;-145.69;100.00;52638.47;5111907;28;20220;-79
2022/11/21 10:51:52;;;;;;;5.87;1.40;;;;;;;-145.69;100.00;52640.44;5112409;28;20239;-76
2022/11/21 10:54:35;;;;;;;6.43;1.17;;;;;;;-145.69;100.00;52624.59;5113116;28;20202;-78
2022/11/21 10:57:09;;;;;;;3.53;1.20;;;;;;;-145.69;100.00;52638.47;5112644;28;20201;-78
2022/11/21 10:59:35;;;;;;;8.53;2.50;;;;;;;-145.69;100.00;52610.75;5113678;28;20193;-77
2022/11/21 11:02:22;;;;;;;8.57;1.30;;;;;;;-145.69;100.00;52638.47;5117175;28;20203;-78
2022/11/21 11:04:49;;;;;;;9.30;1.27;;;;;;;-145.69;100.00;52646.41;5116766;28;20556;-77
2022/11/21 11:07:25;;;;;;;9.00;1.90;;;;;;;-145.69;100.00;52630.53;5116217;28;20200;-79
2022/11/21 11:09:52;;;;;;;8.02;1.60;;;;;;;-145.69;100.00;52634.50;5115784;28;20932;-79
2022/11/21 11:15:18;;;;;;;6.53;1.50;;;;;;;-145.69;100.00;52654.31;5116287;28;20190;-79
2022/11/21 11:17:51;;;;;;;7.93;1.60;;;;;;;-145.69;100.00;52638.47;5116577;28;20580;-81
2022/11/21 11:20:32;;;;;;;4.43;1.20;;;;;;;-145.69;100.00;52612.72;5116026;28;20651;-81
2022/11/21 11:22:59;;;;;;;6.73;1.03;;;;;;;-145.69;100.00;52638.47;5116799;28;20574;-79
2022/11/21 11:25:25;;;;;;;7.80;1.40;;;;;;;-145.69;100.00;52630.53;5116329;28;20281;-79
2022/11/21 11:27:52;;;;;;;6.63;1.30;;;;;;;-145.69;100.00;52596.88;5115581;28;20208;-79
2022/11/21 11:30:20;;;;;;;4.63;1.50;;;;;;;-145.69;100.00;52656.28;5116276;28;20202;-79
2022/11/21 11:32:48;;;;;;;4.60;1.33;;;;;;;-145.69;100.00;52634.50;5115820;28;20304;-79
2022/11/21 11:35:22;;;;;;;4.93;1.40;;;;;;;-145.69;100.00;52648.38;5116409;28;20204;-79
2022/11/21 11:38:02;;;;;;;8.00;1.70;;;;;;;-145.69;100.00;52656.28;5116003;28;20193;-79